sensor_id;sensor_type;location;lat;lon;timestamp;pressure;altitude;pressure_sealevel;temperature
67353;BMP180;54238;52.278;21.056;2022-08-19T00:02:11;100203.00;;;24.82
67353;BMP180;54238;52.278;21.056;2022-08-19T00:04:41;100196.80;;;24.90
67353;BMP180;54238;52.278;21.056;2022-08-19T00:07:10;100194.80;;;24.90
67353;BMP180;54238;52.278;21.056;2022-08-19T00:09:37;100201.20;;;24.90
67353;BMP180;54238;52.278;21.056;2022-08-19T00:12:04;100201.20;;;24.80
67353;BMP180;54238;52.278;21.056;2022-08-19T00:14:37;100200.00;;;24.80
67353;BMP180;54238;52.278;21.056;2022-08-19T00:17:29;100199.00;;;24.80
67353;BMP180;54238;52.278;21.056;2022-08-19T00:20:07;100197.00;;;24.70
67353;BMP180;54238;52.278;21.056;2022-08-19T00:22:35;100196.20;;;24.60
67353;BMP180;54238;52.278;21.056;2022-08-19T00:25:07;100199.80;;;24.60
67353;BMP180;54238;52.278;21.056;2022-08-19T00:27:57;100200.60;;;24.60
67353;BMP180;54238;52.278;21.056;2022-08-19T00:30:26;100201.60;;;24.54
67353;BMP180;54238;52.278;21.056;2022-08-19T00:33:16;100198.00;;;24.50
67353;BMP180;54238;52.278;21.056;2022-08-19T00:35:50;100200.00;;;24.40
67353;BMP180;54238;52.278;21.056;2022-08-19T00:38:24;100206.20;;;24.30
67353;BMP180;54238;52.278;21.056;2022-08-19T00:40:59;100207.40;;;24.30
67353;BMP180;54238;52.278;21.056;2022-08-19T00:43:28;100208.60;;;24.20
67353;BMP180;54238;52.278;21.056;2022-08-19T00:46:00;100211.20;;;24.20
67353;BMP180;54238;52.278;21.056;2022-08-19T00:48:32;100209.60;;;24.20
67353;BMP180;54238;52.278;21.056;2022-08-19T00:51:04;100209.40;;;24.20
67353;BMP180;54238;52.278;21.056;2022-08-19T00:53:34;100207.60;;;24.12
67353;BMP180;54238;52.278;21.056;2022-08-19T00:56:05;100206.40;;;24.10
67353;BMP180;54238;52.278;21.056;2022-08-19T00:58:35;100204.00;;;24.10
67353;BMP180;54238;52.278;21.056;2022-08-19T01:01:09;100201.40;;;24.02
67353;BMP180;54238;52.278;21.056;2022-08-19T01:03:42;100201.20;;;24.00
67353;BMP180;54238;52.278;21.056;2022-08-19T01:06:14;100204.20;;;24.00
67353;BMP180;54238;52.278;21.056;2022-08-19T01:08:44;100202.80;;;24.00
67353;BMP180;54238;52.278;21.056;2022-08-19T01:11:14;100204.00;;;23.90
67353;BMP180;54238;52.278;21.056;2022-08-19T01:13:45;100206.20;;;23.90
67353;BMP180;54238;52.278;21.056;2022-08-19T01:16:19;100211.80;;;23.88
67353;BMP180;54238;52.278;21.056;2022-08-19T01:18:49;100210.80;;;23.80
67353;BMP180;54238;52.278;21.056;2022-08-19T01:21:31;100206.20;;;23.80
67353;BMP180;54238;52.278;21.056;2022-08-19T01:24:04;100211.20;;;23.80
67353;BMP180;54238;52.278;21.056;2022-08-19T01:26:42;100213.80;;;23.70
67353;BMP180;54238;52.278;21.056;2022-08-19T01:29:12;100211.60;;;23.70
67353;BMP180;54238;52.278;21.056;2022-08-19T01:31:41;100208.40;;;23.60
67353;BMP180;54238;52.278;21.056;2022-08-19T01:34:08;100206.60;;;23.60
67353;BMP180;54238;52.278;21.056;2022-08-19T01:36:44;100206.80;;;23.60
67353;BMP180;54238;52.278;21.056;2022-08-19T01:39:27;100209.60;;;23.60
67353;BMP180;54238;52.278;21.056;2022-08-19T01:41:54;100211.20;;;23.60
67353;BMP180;54238;52.278;21.056;2022-08-19T01:44:29;100211.00;;;23.60
67353;BMP180;54238;52.278;21.056;2022-08-19T01:46:56;100210.40;;;23.50
67353;BMP180;54238;52.278;21.056;2022-08-19T01:49:28;100210.00;;;23.50
67353;BMP180;54238;52.278;21.056;2022-08-19T01:51:55;100210.40;;;23.50
67353;BMP180;54238;52.278;21.056;2022-08-19T01:54:23;100207.00;;;23.50
67353;BMP180;54238;52.278;21.056;2022-08-19T01:56:59;100210.40;;;23.50
67353;BMP180;54238;52.278;21.056;2022-08-19T01:59:30;100203.60;;;23.50
67353;BMP180;54238;52.278;21.056;2022-08-19T02:02:05;100199.20;;;23.44
67353;BMP180;54238;52.278;21.056;2022-08-19T02:04:41;100195.80;;;23.40
67353;BMP180;54238;52.278;21.056;2022-08-19T02:07:08;100195.80;;;23.40
67353;BMP180;54238;52.278;21.056;2022-08-19T02:09:40;100195.40;;;23.36
67353;BMP180;54238;52.278;21.056;2022-08-19T02:12:14;100201.00;;;23.30
67353;BMP180;54238;52.278;21.056;2022-08-19T02:14:41;100201.00;;;23.20
67353;BMP180;54238;52.278;21.056;2022-08-19T02:17:12;100202.80;;;23.20
67353;BMP180;54238;52.278;21.056;2022-08-19T02:19:40;100196.60;;;23.10
67353;BMP180;54238;52.278;21.056;2022-08-19T02:22:09;100198.80;;;23.04
67353;BMP180;54238;52.278;21.056;2022-08-19T02:24:38;100193.60;;;23.00
67353;BMP180;54238;52.278;21.056;2022-08-19T02:27:05;100189.40;;;23.00
67353;BMP180;54238;52.278;21.056;2022-08-19T02:29:32;100187.20;;;22.90
67353;BMP180;54238;52.278;21.056;2022-08-19T02:32:02;100188.20;;;22.90
67353;BMP180;54238;52.278;21.056;2022-08-19T02:34:34;100186.00;;;22.86
67353;BMP180;54238;52.278;21.056;2022-08-19T02:37:01;100184.60;;;22.80
67353;BMP180;54238;52.278;21.056;2022-08-19T02:39:30;100181.40;;;22.80
67353;BMP180;54238;52.278;21.056;2022-08-19T02:42:00;100183.40;;;22.70
67353;BMP180;54238;52.278;21.056;2022-08-19T02:44:29;100184.20;;;22.70
67353;BMP180;54238;52.278;21.056;2022-08-19T02:46:56;100178.00;;;22.70
67353;BMP180;54238;52.278;21.056;2022-08-19T02:49:30;100183.40;;;22.62
67353;BMP180;54238;52.278;21.056;2022-08-19T02:51:57;100191.60;;;22.60
67353;BMP180;54238;52.278;21.056;2022-08-19T02:54:27;100190.40;;;22.60
67353;BMP180;54238;52.278;21.056;2022-08-19T02:56:54;100193.60;;;22.50
67353;BMP180;54238;52.278;21.056;2022-08-19T02:59:32;100193.20;;;22.48
67353;BMP180;54238;52.278;21.056;2022-08-19T03:01:59;100189.40;;;22.40
67353;BMP180;54238;52.278;21.056;2022-08-19T03:04:29;100187.20;;;22.40
67353;BMP180;54238;52.278;21.056;2022-08-19T03:06:58;100181.40;;;22.40
67353;BMP180;54238;52.278;21.056;2022-08-19T03:09:29;100183.40;;;22.40
67353;BMP180;54238;52.278;21.056;2022-08-19T03:11:58;100180.60;;;22.36
67353;BMP180;54238;52.278;21.056;2022-08-19T03:14:29;100185.80;;;22.30
67353;BMP180;54238;52.278;21.056;2022-08-19T03:17:03;100187.00;;;22.30
67353;BMP180;54238;52.278;21.056;2022-08-19T03:19:34;100185.20;;;22.30
67353;BMP180;54238;52.278;21.056;2022-08-19T03:22:05;100182.60;;;22.30
67353;BMP180;54238;52.278;21.056;2022-08-19T03:24:32;100183.20;;;22.30
67353;BMP180;54238;52.278;21.056;2022-08-19T03:27:01;100177.40;;;22.28
67353;BMP180;54238;52.278;21.056;2022-08-19T03:29:32;100171.00;;;22.20
67353;BMP180;54238;52.278;21.056;2022-08-19T03:32:22;100172.80;;;22.20
67353;BMP180;54238;52.278;21.056;2022-08-19T03:34:49;100175.80;;;22.20
67353;BMP180;54238;52.278;21.056;2022-08-19T03:37:36;100178.60;;;22.20
67353;BMP180;54238;52.278;21.056;2022-08-19T03:40:07;100182.40;;;22.20
67353;BMP180;54238;52.278;21.056;2022-08-19T03:42:39;100184.60;;;22.20
67353;BMP180;54238;52.278;21.056;2022-08-19T03:45:09;100183.00;;;22.22
67353;BMP180;54238;52.278;21.056;2022-08-19T03:47:37;100191.60;;;22.28
67353;BMP180;54238;52.278;21.056;2022-08-19T03:50:05;100193.40;;;22.30
67353;BMP180;54238;52.278;21.056;2022-08-19T03:52:32;100192.80;;;22.30
67353;BMP180;54238;52.278;21.056;2022-08-19T03:55:19;100201.80;;;22.30
67353;BMP180;54238;52.278;21.056;2022-08-19T03:58:16;100203.20;;;22.30
67353;BMP180;54238;52.278;21.056;2022-08-19T04:00:45;100206.80;;;22.30
67353;BMP180;54238;52.278;21.056;2022-08-19T04:03:15;100205.20;;;22.40
67353;BMP180;54238;52.278;21.056;2022-08-19T04:05:42;100203.00;;;22.40
67353;BMP180;54238;52.278;21.056;2022-08-19T04:08:09;100200.40;;;22.48
67353;BMP180;54238;52.278;21.056;2022-08-19T04:10:41;100205.60;;;22.50
67353;BMP180;54238;52.278;21.056;2022-08-19T04:13:10;100203.80;;;22.52
67353;BMP180;54238;52.278;21.056;2022-08-19T04:15:45;100204.40;;;22.60
67353;BMP180;54238;52.278;21.056;2022-08-19T04:18:17;100199.80;;;22.60
67353;BMP180;54238;52.278;21.056;2022-08-19T04:20:46;100201.80;;;22.70
67353;BMP180;54238;52.278;21.056;2022-08-19T04:23:14;100199.80;;;22.70
67353;BMP180;54238;52.278;21.056;2022-08-19T04:25:50;100193.40;;;22.80
67353;BMP180;54238;52.278;21.056;2022-08-19T04:28:23;100196.20;;;22.80
67353;BMP180;54238;52.278;21.056;2022-08-19T04:30:55;100192.80;;;22.90
67353;BMP180;54238;52.278;21.056;2022-08-19T04:33:26;100188.60;;;22.90
67353;BMP180;54238;52.278;21.056;2022-08-19T04:36:02;100192.40;;;23.00
67353;BMP180;54238;52.278;21.056;2022-08-19T04:38:34;100193.60;;;23.06
67353;BMP180;54238;52.278;21.056;2022-08-19T04:41:07;100196.40;;;23.10
67353;BMP180;54238;52.278;21.056;2022-08-19T04:43:53;100199.20;;;23.20
67353;BMP180;54238;52.278;21.056;2022-08-19T04:46:22;100201.20;;;23.20
67353;BMP180;54238;52.278;21.056;2022-08-19T04:48:51;100201.80;;;23.30
67353;BMP180;54238;52.278;21.056;2022-08-19T04:51:23;100200.60;;;23.40
67353;BMP180;54238;52.278;21.056;2022-08-19T04:53:53;100198.20;;;23.50
67353;BMP180;54238;52.278;21.056;2022-08-19T04:56:23;100197.00;;;23.60
67353;BMP180;54238;52.278;21.056;2022-08-19T04:59:00;100197.60;;;23.70
67353;BMP180;54238;52.278;21.056;2022-08-19T05:01:51;100194.00;;;23.80
67353;BMP180;54238;52.278;21.056;2022-08-19T05:04:21;100199.80;;;23.90
67353;BMP180;54238;52.278;21.056;2022-08-19T05:06:53;100195.20;;;24.00
67353;BMP180;54238;52.278;21.056;2022-08-19T05:09:20;100199.00;;;24.10
67353;BMP180;54238;52.278;21.056;2022-08-19T05:11:49;100198.80;;;24.20
67353;BMP180;54238;52.278;21.056;2022-08-19T05:14:22;100192.40;;;24.30
67353;BMP180;54238;52.278;21.056;2022-08-19T05:16:52;100194.80;;;24.40
67353;BMP180;54238;52.278;21.056;2022-08-19T05:19:19;100191.00;;;24.40
67353;BMP180;54238;52.278;21.056;2022-08-19T05:22:06;100191.60;;;24.44
67353;BMP180;54238;52.278;21.056;2022-08-19T05:24:52;100192.80;;;24.50
67353;BMP180;54238;52.278;21.056;2022-08-19T05:27:22;100195.60;;;24.54
67353;BMP180;54238;52.278;21.056;2022-08-19T05:29:51;100204.00;;;24.60
67353;BMP180;54238;52.278;21.056;2022-08-19T05:32:23;100203.80;;;24.60
67353;BMP180;54238;52.278;21.056;2022-08-19T05:34:54;100207.60;;;24.60
67353;BMP180;54238;52.278;21.056;2022-08-19T05:37:26;100207.20;;;24.70
67353;BMP180;54238;52.278;21.056;2022-08-19T05:39:58;100209.00;;;24.70
67353;BMP180;54238;52.278;21.056;2022-08-19T05:42:25;100208.80;;;24.74
67353;BMP180;54238;52.278;21.056;2022-08-19T05:44:53;100208.80;;;24.80
67353;BMP180;54238;52.278;21.056;2022-08-19T05:47:28;100215.80;;;24.88
67353;BMP180;54238;52.278;21.056;2022-08-19T05:49:57;100221.80;;;24.90
67353;BMP180;54238;52.278;21.056;2022-08-19T05:52:24;100228.60;;;25.00
67353;BMP180;54238;52.278;21.056;2022-08-19T05:54:54;100230.00;;;25.10
67353;BMP180;54238;52.278;21.056;2022-08-19T05:57:27;100233.80;;;25.10
67353;BMP180;54238;52.278;21.056;2022-08-19T05:59:57;100231.80;;;25.20
67353;BMP180;54238;52.278;21.056;2022-08-19T06:02:29;100227.80;;;25.26
67353;BMP180;54238;52.278;21.056;2022-08-19T06:05:06;100223.60;;;25.32
67353;BMP180;54238;52.278;21.056;2022-08-19T06:07:38;100218.40;;;25.40
67353;BMP180;54238;52.278;21.056;2022-08-19T06:10:11;100219.40;;;25.50
67353;BMP180;54238;52.278;21.056;2022-08-19T06:12:42;100214.40;;;25.60
67353;BMP180;54238;52.278;21.056;2022-08-19T06:15:13;100215.20;;;25.64
67353;BMP180;54238;52.278;21.056;2022-08-19T06:17:45;100204.20;;;25.70
67353;BMP180;54238;52.278;21.056;2022-08-19T06:20:14;100199.40;;;25.80
67353;BMP180;54238;52.278;21.056;2022-08-19T06:22:45;100199.00;;;25.90
67353;BMP180;54238;52.278;21.056;2022-08-19T06:25:14;100200.00;;;26.00
67353;BMP180;54238;52.278;21.056;2022-08-19T06:27:44;100206.20;;;26.10
67353;BMP180;54238;52.278;21.056;2022-08-19T06:30:12;100206.20;;;26.20
67353;BMP180;54238;52.278;21.056;2022-08-19T06:32:47;100207.00;;;26.34
67353;BMP180;54238;52.278;21.056;2022-08-19T06:35:19;100210.40;;;26.46
67353;BMP180;54238;52.278;21.056;2022-08-19T06:37:48;100216.20;;;26.56
67353;BMP180;54238;52.278;21.056;2022-08-19T06:40:15;100213.40;;;26.70
67353;BMP180;54238;52.278;21.056;2022-08-19T06:42:44;100219.20;;;26.80
67353;BMP180;54238;52.278;21.056;2022-08-19T06:45:11;100224.00;;;26.90
67353;BMP180;54238;52.278;21.056;2022-08-19T06:48:00;100225.20;;;27.00
67353;BMP180;54238;52.278;21.056;2022-08-19T06:50:27;100223.00;;;27.10
67353;BMP180;54238;52.278;21.056;2022-08-19T06:52:57;100217.00;;;27.20
67353;BMP180;54238;52.278;21.056;2022-08-19T06:55:31;100221.80;;;27.30
67353;BMP180;54238;52.278;21.056;2022-08-19T06:58:04;100224.20;;;27.40
67353;BMP180;54238;52.278;21.056;2022-08-19T07:00:39;100222.00;;;27.50
67353;BMP180;54238;52.278;21.056;2022-08-19T07:03:11;100218.40;;;27.60
67353;BMP180;54238;52.278;21.056;2022-08-19T07:05:41;100217.80;;;27.76
67353;BMP180;54238;52.278;21.056;2022-08-19T07:08:08;100215.20;;;27.90
67353;BMP180;54238;52.278;21.056;2022-08-19T07:10:43;100217.80;;;28.00
67353;BMP180;54238;52.278;21.056;2022-08-19T07:13:26;100232.00;;;28.10
67353;BMP180;54238;52.278;21.056;2022-08-19T07:15:55;100229.40;;;28.26
67353;BMP180;54238;52.278;21.056;2022-08-19T07:18:27;100224.20;;;28.30
67353;BMP180;54238;52.278;21.056;2022-08-19T07:23:34;100243.40;;;28.30
67353;BMP180;54238;52.278;21.056;2022-08-19T07:26:15;100248.00;;;28.30
67353;BMP180;54238;52.278;21.056;2022-08-19T07:28:47;100243.80;;;28.26
67353;BMP180;54238;52.278;21.056;2022-08-19T07:31:23;100236.00;;;28.28
67353;BMP180;54238;52.278;21.056;2022-08-19T07:33:54;100235.80;;;28.30
67353;BMP180;54238;52.278;21.056;2022-08-19T07:36:28;100232.80;;;28.40
67353;BMP180;54238;52.278;21.056;2022-08-19T07:39:05;100218.20;;;28.40
67353;BMP180;54238;52.278;21.056;2022-08-19T07:41:37;100213.40;;;28.46
67353;BMP180;54238;52.278;21.056;2022-08-19T07:44:10;100212.60;;;28.50
67353;BMP180;54238;52.278;21.056;2022-08-19T07:46:53;100214.80;;;28.58
67353;BMP180;54238;52.278;21.056;2022-08-19T07:49:21;100220.20;;;28.60
67353;BMP180;54238;52.278;21.056;2022-08-19T07:51:59;100225.20;;;28.70
67353;BMP180;54238;52.278;21.056;2022-08-19T07:54:36;100224.20;;;28.80
67353;BMP180;54238;52.278;21.056;2022-08-19T07:57:04;100231.20;;;28.80
67353;BMP180;54238;52.278;21.056;2022-08-19T07:59:35;100231.60;;;28.86
67353;BMP180;54238;52.278;21.056;2022-08-19T08:02:11;100225.20;;;28.98
67353;BMP180;54238;52.278;21.056;2022-08-19T08:04:41;100226.80;;;29.08
67353;BMP180;54238;52.278;21.056;2022-08-19T08:07:26;100224.40;;;29.10
67353;BMP180;54238;52.278;21.056;2022-08-19T08:10:14;100218.40;;;29.10
67353;BMP180;54238;52.278;21.056;2022-08-19T08:12:44;100214.40;;;29.10
67353;BMP180;54238;52.278;21.056;2022-08-19T08:15:18;100219.40;;;29.20
67353;BMP180;54238;52.278;21.056;2022-08-19T08:17:46;100216.40;;;29.20
67353;BMP180;54238;52.278;21.056;2022-08-19T08:20:18;100219.60;;;29.20
67353;BMP180;54238;52.278;21.056;2022-08-19T08:22:48;100220.00;;;29.20
67353;BMP180;54238;52.278;21.056;2022-08-19T08:25:35;100221.20;;;29.30
67353;BMP180;54238;52.278;21.056;2022-08-19T08:28:05;100216.40;;;29.40
67353;BMP180;54238;52.278;21.056;2022-08-19T08:30:35;100218.00;;;29.42
67353;BMP180;54238;52.278;21.056;2022-08-19T08:33:06;100219.20;;;29.50
67353;BMP180;54238;52.278;21.056;2022-08-19T08:35:33;100223.60;;;29.60
67353;BMP180;54238;52.278;21.056;2022-08-19T08:38:00;100229.80;;;29.70
67353;BMP180;54238;52.278;21.056;2022-08-19T08:43:27;100227.80;;;29.90
67353;BMP180;54238;52.278;21.056;2022-08-19T08:46:00;100226.60;;;30.00
67353;BMP180;54238;52.278;21.056;2022-08-19T08:51:43;100230.80;;;30.30
67353;BMP180;54238;52.278;21.056;2022-08-19T08:54:24;100225.80;;;30.50
67353;BMP180;54238;52.278;21.056;2022-08-19T08:56:53;100226.00;;;30.74
67353;BMP180;54238;52.278;21.056;2022-08-19T08:59:34;100221.60;;;31.00
67353;BMP180;54238;52.278;21.056;2022-08-19T09:02:05;100231.80;;;31.20
67353;BMP180;54238;52.278;21.056;2022-08-19T09:04:37;100243.00;;;31.26
67353;BMP180;54238;52.278;21.056;2022-08-19T09:10:30;100250.60;;;31.50
67353;BMP180;54238;52.278;21.056;2022-08-19T09:15:43;100251.20;;;31.70
67353;BMP180;54238;52.278;21.056;2022-08-19T09:18:14;100247.40;;;31.80
67353;BMP180;54238;52.278;21.056;2022-08-19T09:20:48;100245.80;;;31.92
67353;BMP180;54238;52.278;21.056;2022-08-19T09:23:15;100250.80;;;32.10
67353;BMP180;54238;52.278;21.056;2022-08-19T09:25:42;100254.60;;;32.30
67353;BMP180;54238;52.278;21.056;2022-08-19T09:28:12;100244.00;;;32.30
67353;BMP180;54238;52.278;21.056;2022-08-19T09:30:41;100240.80;;;32.40
67353;BMP180;54238;52.278;21.056;2022-08-19T09:33:13;100238.60;;;32.50
67353;BMP180;54238;52.278;21.056;2022-08-19T09:35:42;100241.40;;;32.56
67353;BMP180;54238;52.278;21.056;2022-08-19T09:38:11;100246.40;;;32.70
67353;BMP180;54238;52.278;21.056;2022-08-19T09:40:41;100250.00;;;32.90
67353;BMP180;54238;52.278;21.056;2022-08-19T09:43:10;100239.60;;;33.10
67353;BMP180;54238;52.278;21.056;2022-08-19T09:45:40;100245.00;;;33.20
67353;BMP180;54238;52.278;21.056;2022-08-19T09:48:11;100248.60;;;33.50
67353;BMP180;54238;52.278;21.056;2022-08-19T09:50:41;100252.80;;;33.70
67353;BMP180;54238;52.278;21.056;2022-08-19T09:53:10;100252.80;;;33.92
67353;BMP180;54238;52.278;21.056;2022-08-19T09:55:43;100252.40;;;34.14
67353;BMP180;54238;52.278;21.056;2022-08-19T09:58:13;100260.20;;;34.30
67353;BMP180;54238;52.278;21.056;2022-08-19T10:00:42;100255.80;;;34.48
67353;BMP180;54238;52.278;21.056;2022-08-19T10:03:09;100255.80;;;34.60
67353;BMP180;54238;52.278;21.056;2022-08-19T10:05:38;100257.00;;;34.80
67353;BMP180;54238;52.278;21.056;2022-08-19T10:08:20;100248.00;;;34.90
67353;BMP180;54238;52.278;21.056;2022-08-19T10:10:49;100248.20;;;35.00
67353;BMP180;54238;52.278;21.056;2022-08-19T10:13:27;100236.60;;;35.10
67353;BMP180;54238;52.278;21.056;2022-08-19T10:16:05;100236.20;;;35.30
67353;BMP180;54238;52.278;21.056;2022-08-19T10:18:39;100230.00;;;35.50
67353;BMP180;54238;52.278;21.056;2022-08-19T10:21:17;100223.00;;;35.78
67353;BMP180;54238;52.278;21.056;2022-08-19T10:23:50;100229.40;;;36.00
67353;BMP180;54238;52.278;21.056;2022-08-19T10:26:26;100232.80;;;36.34
67353;BMP180;54238;52.278;21.056;2022-08-19T10:28:56;100233.80;;;36.70
67353;BMP180;54238;52.278;21.056;2022-08-19T10:31:31;100232.40;;;36.90
67353;BMP180;54238;52.278;21.056;2022-08-19T10:34:01;100231.80;;;37.00
67353;BMP180;54238;52.278;21.056;2022-08-19T10:36:34;100229.00;;;37.20
67353;BMP180;54238;52.278;21.056;2022-08-19T10:39:08;100225.00;;;37.44
67353;BMP180;54238;52.278;21.056;2022-08-19T10:41:39;100232.40;;;37.70
67353;BMP180;54238;52.278;21.056;2022-08-19T10:44:26;100221.80;;;37.80
67353;BMP180;54238;52.278;21.056;2022-08-19T10:47:29;100225.40;;;37.90
67353;BMP180;54238;52.278;21.056;2022-08-19T10:49:57;100216.80;;;38.00
67353;BMP180;54238;52.278;21.056;2022-08-19T10:53:06;100225.60;;;38.26
67353;BMP180;54238;52.278;21.056;2022-08-19T10:55:53;100224.40;;;38.50
67353;BMP180;54238;52.278;21.056;2022-08-19T10:58:38;100219.40;;;38.70
67353;BMP180;54238;52.278;21.056;2022-08-19T11:01:10;100225.80;;;38.90
67353;BMP180;54238;52.278;21.056;2022-08-19T11:03:41;100227.20;;;39.10
67353;BMP180;54238;52.278;21.056;2022-08-19T11:06:13;100220.80;;;39.10
67353;BMP180;54238;52.278;21.056;2022-08-19T11:08:45;100212.80;;;39.28
67353;BMP180;54238;52.278;21.056;2022-08-19T11:11:20;100208.40;;;39.46
67353;BMP180;54238;52.278;21.056;2022-08-19T11:13:49;100214.60;;;39.64
67353;BMP180;54238;52.278;21.056;2022-08-19T11:16:23;100214.80;;;39.80
67353;BMP180;54238;52.278;21.056;2022-08-19T11:18:57;100213.80;;;39.84
67353;BMP180;54238;52.278;21.056;2022-08-19T11:21:36;100199.00;;;39.80
67353;BMP180;54238;52.278;21.056;2022-08-19T11:24:21;100206.60;;;39.86
67353;BMP180;54238;52.278;21.056;2022-08-19T11:27:03;100202.00;;;39.80
67353;BMP180;54238;52.278;21.056;2022-08-19T11:29:36;100194.00;;;39.80
67353;BMP180;54238;52.278;21.056;2022-08-19T11:32:10;100202.20;;;39.96
67353;BMP180;54238;52.278;21.056;2022-08-19T11:34:37;100202.00;;;39.80
67353;BMP180;54238;52.278;21.056;2022-08-19T11:37:05;100196.40;;;39.80
67353;BMP180;54238;52.278;21.056;2022-08-19T11:39:33;100189.60;;;39.90
67353;BMP180;54238;52.278;21.056;2022-08-19T11:42:06;100196.20;;;40.00
67353;BMP180;54238;52.278;21.056;2022-08-19T11:44:54;100190.20;;;39.98
67353;BMP180;54238;52.278;21.056;2022-08-19T11:47:23;100182.80;;;40.04
67353;BMP180;54238;52.278;21.056;2022-08-19T11:49:55;100184.20;;;40.30
67353;BMP180;54238;52.278;21.056;2022-08-19T11:52:24;100180.20;;;40.64
67353;BMP180;54238;52.278;21.056;2022-08-19T11:54:53;100179.60;;;40.94
67353;BMP180;54238;52.278;21.056;2022-08-19T11:57:23;100181.60;;;41.20
67353;BMP180;54238;52.278;21.056;2022-08-19T11:59:52;100176.20;;;41.10
67353;BMP180;54238;52.278;21.056;2022-08-19T12:02:26;100167.40;;;41.00
67353;BMP180;54238;52.278;21.056;2022-08-19T12:04:55;100162.80;;;40.90
67353;BMP180;54238;52.278;21.056;2022-08-19T12:07:27;100162.80;;;41.00
67353;BMP180;54238;52.278;21.056;2022-08-19T12:09:59;100162.20;;;41.00
67353;BMP180;54238;52.278;21.056;2022-08-19T12:12:29;100148.60;;;41.20
67353;BMP180;54238;52.278;21.056;2022-08-19T12:14:56;100155.00;;;41.40
67353;BMP180;54238;52.278;21.056;2022-08-19T12:17:29;100150.80;;;41.60
67353;BMP180;54238;52.278;21.056;2022-08-19T12:19:59;100150.00;;;41.70
67353;BMP180;54238;52.278;21.056;2022-08-19T12:22:26;100156.40;;;41.80
67353;BMP180;54238;52.278;21.056;2022-08-19T12:24:58;100146.60;;;41.90
67353;BMP180;54238;52.278;21.056;2022-08-19T12:27:28;100146.00;;;42.02
67353;BMP180;54238;52.278;21.056;2022-08-19T12:29:57;100145.40;;;42.02
67353;BMP180;54238;52.278;21.056;2022-08-19T12:32:27;100151.40;;;42.00
67353;BMP180;54238;52.278;21.056;2022-08-19T12:34:58;100150.00;;;42.10
67353;BMP180;54238;52.278;21.056;2022-08-19T12:37:28;100145.80;;;42.10
67353;BMP180;54238;52.278;21.056;2022-08-19T12:39:58;100138.20;;;42.20
67353;BMP180;54238;52.278;21.056;2022-08-19T12:42:25;100134.40;;;42.30
67353;BMP180;54238;52.278;21.056;2022-08-19T12:44:54;100139.60;;;42.40
67353;BMP180;54238;52.278;21.056;2022-08-19T12:47:28;100134.20;;;42.38
67353;BMP180;54238;52.278;21.056;2022-08-19T12:49:58;100131.00;;;42.30
67353;BMP180;54238;52.278;21.056;2022-08-19T12:52:28;100126.20;;;42.30
67353;BMP180;54238;52.278;21.056;2022-08-19T12:54:57;100122.00;;;42.10
67353;BMP180;54238;52.278;21.056;2022-08-19T12:57:29;100121.20;;;42.20
67353;BMP180;54238;52.278;21.056;2022-08-19T13:00:22;100119.60;;;42.20
67353;BMP180;54238;52.278;21.056;2022-08-19T13:02:52;100121.00;;;42.20
67353;BMP180;54238;52.278;21.056;2022-08-19T13:05:27;100122.20;;;42.20
67353;BMP180;54238;52.278;21.056;2022-08-19T13:07:58;100123.60;;;42.32
67353;BMP180;54238;52.278;21.056;2022-08-19T13:10:35;100120.40;;;42.60
67353;BMP180;54238;52.278;21.056;2022-08-19T13:13:07;100117.60;;;42.80
67353;BMP180;54238;52.278;21.056;2022-08-19T13:15:43;100119.60;;;42.90
67353;BMP180;54238;52.278;21.056;2022-08-19T13:18:12;100118.40;;;42.98
67353;BMP180;54238;52.278;21.056;2022-08-19T13:20:40;100121.80;;;43.00
67353;BMP180;54238;52.278;21.056;2022-08-19T13:23:09;100114.20;;;42.88
67353;BMP180;54238;52.278;21.056;2022-08-19T13:25:38;100119.60;;;42.72
67353;BMP180;54238;52.278;21.056;2022-08-19T13:28:12;100122.80;;;42.80
67353;BMP180;54238;52.278;21.056;2022-08-19T13:30:39;100119.40;;;42.90
67353;BMP180;54238;52.278;21.056;2022-08-19T13:33:25;100121.80;;;43.00
67353;BMP180;54238;52.278;21.056;2022-08-19T13:35:58;100120.40;;;42.90
67353;BMP180;54238;52.278;21.056;2022-08-19T13:38:30;100119.60;;;43.00
67353;BMP180;54238;52.278;21.056;2022-08-19T13:41:05;100115.60;;;43.00
67353;BMP180;54238;52.278;21.056;2022-08-19T13:43:34;100117.60;;;43.10
67353;BMP180;54238;52.278;21.056;2022-08-19T13:46:12;100116.20;;;43.10
67353;BMP180;54238;52.278;21.056;2022-08-19T13:48:41;100120.60;;;43.10
67353;BMP180;54238;52.278;21.056;2022-08-19T13:51:09;100123.60;;;43.20
67353;BMP180;54238;52.278;21.056;2022-08-19T13:53:43;100118.00;;;43.20
67353;BMP180;54238;52.278;21.056;2022-08-19T13:56:15;100122.40;;;43.10
67353;BMP180;54238;52.278;21.056;2022-08-19T13:58:48;100119.40;;;43.00
67353;BMP180;54238;52.278;21.056;2022-08-19T14:01:20;100121.00;;;43.00
67353;BMP180;54238;52.278;21.056;2022-08-19T14:03:50;100119.20;;;43.00
67353;BMP180;54238;52.278;21.056;2022-08-19T14:06:20;100124.00;;;43.00
67353;BMP180;54238;52.278;21.056;2022-08-19T14:08:51;100121.00;;;42.90
67353;BMP180;54238;52.278;21.056;2022-08-19T14:11:19;100131.40;;;42.70
67353;BMP180;54238;52.278;21.056;2022-08-19T14:13:49;100132.00;;;42.70
67353;BMP180;54238;52.278;21.056;2022-08-19T14:16:19;100126.80;;;42.60
67353;BMP180;54238;52.278;21.056;2022-08-19T14:18:49;100130.80;;;42.50
67353;BMP180;54238;52.278;21.056;2022-08-19T14:21:22;100124.40;;;42.50
67353;BMP180;54238;52.278;21.056;2022-08-19T14:23:53;100128.00;;;42.50
67353;BMP180;54238;52.278;21.056;2022-08-19T14:26:25;100127.40;;;42.40
67353;BMP180;54238;52.278;21.056;2022-08-19T14:28:55;100130.20;;;42.40